sensor_id;sensor_type;location;lat;lon;timestamp;temperature;humidity
44707;DHT22;30433;45.596;8.408;2023-02-04T00:03:41;1.50;94.20
44707;DHT22;30433;45.596;8.408;2023-02-04T00:09:43;1.80;94.30
44707;DHT22;30433;45.596;8.408;2023-02-04T00:15:48;1.70;93.60
44707;DHT22;30433;45.596;8.408;2023-02-04T00:21:49;1.40;93.60
44707;DHT22;30433;45.596;8.408;2023-02-04T00:27:51;2.10;93.10
44707;DHT22;30433;45.596;8.408;2023-02-04T00:33:54;2.00;92.90
44707;DHT22;30433;45.596;8.408;2023-02-04T00:39:56;2.00;93.40
44707;DHT22;30433;45.596;8.408;2023-02-04T00:45:58;2.50;93.00
44707;DHT22;30433;45.596;8.408;2023-02-04T00:52:01;2.90;92.90
44707;DHT22;30433;45.596;8.408;2023-02-04T00:58:03;2.10;92.60
44707;DHT22;30433;45.596;8.408;2023-02-04T01:04:04;2.00;93.70
44707;DHT22;30433;45.596;8.408;2023-02-04T01:10:10;1.90;93.80
44707;DHT22;30433;45.596;8.408;2023-02-04T01:16:12;1.90;93.30
44707;DHT22;30433;45.596;8.408;2023-02-04T01:22:14;1.00;94.00
44707;DHT22;30433;45.596;8.408;2023-02-04T01:28:17;1.20;94.20
44707;DHT22;30433;45.596;8.408;2023-02-04T01:34:19;0.40;93.80
44707;DHT22;30433;45.596;8.408;2023-02-04T01:40:20;2.10;92.30
44707;DHT22;30433;45.596;8.408;2023-02-04T01:46:24;2.50;92.30
44707;DHT22;30433;45.596;8.408;2023-02-04T01:52:26;1.60;92.80
44707;DHT22;30433;45.596;8.408;2023-02-04T01:58:28;1.20;93.50
44707;DHT22;30433;45.596;8.408;2023-02-04T02:04:33;1.80;93.50
44707;DHT22;30433;45.596;8.408;2023-02-04T02:10:36;1.90;92.60
44707;DHT22;30433;45.596;8.408;2023-02-04T02:16:38;1.80;92.90
44707;DHT22;30433;45.596;8.408;2023-02-04T02:22:44;2.20;92.60
44707;DHT22;30433;45.596;8.408;2023-02-04T02:28:50;1.20;92.90
44707;DHT22;30433;45.596;8.408;2023-02-04T02:34:52;2.00;93.30
44707;DHT22;30433;45.596;8.408;2023-02-04T02:40:54;1.40;92.60
44707;DHT22;30433;45.596;8.408;2023-02-04T02:46:57;1.60;92.50
44707;DHT22;30433;45.596;8.408;2023-02-04T02:52:59;1.20;92.80
44707;DHT22;30433;45.596;8.408;2023-02-04T02:59:11;1.10;92.60
44707;DHT22;30433;45.596;8.408;2023-02-04T03:05:14;1.20;92.60
44707;DHT22;30433;45.596;8.408;2023-02-04T03:11:16;1.70;92.10
44707;DHT22;30433;45.596;8.408;2023-02-04T03:17:18;1.90;91.70
44707;DHT22;30433;45.596;8.408;2023-02-04T03:23:21;3.10;90.00
44707;DHT22;30433;45.596;8.408;2023-02-04T03:29:23;3.40;88.20
44707;DHT22;30433;45.596;8.408;2023-02-04T03:35:24;4.10;85.10
44707;DHT22;30433;45.596;8.408;2023-02-04T03:41:27;3.50;87.10
44707;DHT22;30433;45.596;8.408;2023-02-04T03:47:29;3.40;88.80
44707;DHT22;30433;45.596;8.408;2023-02-04T03:53:31;4.60;85.60
44707;DHT22;30433;45.596;8.408;2023-02-04T03:59:34;5.40;83.70
44707;DHT22;30433;45.596;8.408;2023-02-04T04:05:36;5.60;82.40
44707;DHT22;30433;45.596;8.408;2023-02-04T04:11:38;5.30;84.80
44707;DHT22;30433;45.596;8.408;2023-02-04T04:17:41;4.90;85.60
44707;DHT22;30433;45.596;8.408;2023-02-04T04:23:42;5.40;83.60
44707;DHT22;30433;45.596;8.408;2023-02-04T04:29:44;4.80;85.70
44707;DHT22;30433;45.596;8.408;2023-02-04T04:35:47;4.20;87.90
44707;DHT22;30433;45.596;8.408;2023-02-04T04:41:49;3.60;90.20
44707;DHT22;30433;45.596;8.408;2023-02-04T04:47:51;3.60;87.70
44707;DHT22;30433;45.596;8.408;2023-02-04T04:53:54;4.30;85.90
44707;DHT22;30433;45.596;8.408;2023-02-04T04:59:56;4.10;87.40
44707;DHT22;30433;45.596;8.408;2023-02-04T05:05:58;4.00;87.80
44707;DHT22;30433;45.596;8.408;2023-02-04T05:12:01;4.40;85.70
44707;DHT22;30433;45.596;8.408;2023-02-04T05:18:03;5.10;83.80
44707;DHT22;30433;45.596;8.408;2023-02-04T05:24:05;5.20;83.80
44707;DHT22;30433;45.596;8.408;2023-02-04T05:30:09;5.10;83.50
44707;DHT22;30433;45.596;8.408;2023-02-04T05:36:12;4.80;85.40
44707;DHT22;30433;45.596;8.408;2023-02-04T05:42:13;4.10;87.40
44707;DHT22;30433;45.596;8.408;2023-02-04T05:48:17;3.40;89.40
44707;DHT22;30433;45.596;8.408;2023-02-04T05:54:18;3.50;89.30
44707;DHT22;30433;45.596;8.408;2023-02-04T06:00:20;4.10;86.80
44707;DHT22;30433;45.596;8.408;2023-02-04T06:06:23;3.60;88.90
44707;DHT22;30433;45.596;8.408;2023-02-04T06:12:25;3.10;89.40
44707;DHT22;30433;45.596;8.408;2023-02-04T06:18:27;2.70;89.50
44707;DHT22;30433;45.596;8.408;2023-02-04T06:24:30;2.60;91.40
44707;DHT22;30433;45.596;8.408;2023-02-04T06:30:32;2.90;90.60
44707;DHT22;30433;45.596;8.408;2023-02-04T06:36:34;2.80;90.70
44707;DHT22;30433;45.596;8.408;2023-02-04T06:42:37;2.40;90.80
44707;DHT22;30433;45.596;8.408;2023-02-04T06:48:39;3.90;88.30
44707;DHT22;30433;45.596;8.408;2023-02-04T06:54:40;4.80;86.70
44707;DHT22;30433;45.596;8.408;2023-02-04T07:00:43;4.80;86.40
44707;DHT22;30433;45.596;8.408;2023-02-04T07:06:45;5.20;86.20
44707;DHT22;30433;45.596;8.408;2023-02-04T07:12:47;5.30;86.40
44707;DHT22;30433;45.596;8.408;2023-02-04T07:18:50;5.90;83.60
44707;DHT22;30433;45.596;8.408;2023-02-04T07:24:52;5.80;84.10
44707;DHT22;30433;45.596;8.408;2023-02-04T07:30:54;7.10;82.00
44707;DHT22;30433;45.596;8.408;2023-02-04T07:36:57;7.70;80.80
44707;DHT22;30433;45.596;8.408;2023-02-04T07:42:58;8.20;80.70
44707;DHT22;30433;45.596;8.408;2023-02-04T07:49:00;8.10;81.90
44707;DHT22;30433;45.596;8.408;2023-02-04T07:55:04;8.10;82.40
44707;DHT22;30433;45.596;8.408;2023-02-04T08:01:05;8.60;82.90
44707;DHT22;30433;45.596;8.408;2023-02-04T08:07:07;8.50;85.70
44707;DHT22;30433;45.596;8.408;2023-02-04T08:13:10;9.20;84.90
44707;DHT22;30433;45.596;8.408;2023-02-04T08:19:12;9.70;80.70
44707;DHT22;30433;45.596;8.408;2023-02-04T08:25:18;9.90;83.00
44707;DHT22;30433;45.596;8.408;2023-02-04T08:31:21;10.80;81.40
44707;DHT22;30433;45.596;8.408;2023-02-04T08:37:23;11.10;76.60
44707;DHT22;30433;45.596;8.408;2023-02-04T08:43:25;10.90;76.20
44707;DHT22;30433;45.596;8.408;2023-02-04T08:49:28;10.90;79.20
44707;DHT22;30433;45.596;8.408;2023-02-04T08:55:30;11.70;76.60
44707;DHT22;30433;45.596;8.408;2023-02-04T09:01:31;11.90;76.50
44707;DHT22;30433;45.596;8.408;2023-02-04T09:07:35;12.60;77.30
44707;DHT22;30433;45.596;8.408;2023-02-04T09:13:36;13.40;76.20
44707;DHT22;30433;45.596;8.408;2023-02-04T09:19:38;13.10;74.90
44707;DHT22;30433;45.596;8.408;2023-02-04T09:25:42;13.40;72.30
44707;DHT22;30433;45.596;8.408;2023-02-04T09:31:44;14.10;74.20
44707;DHT22;30433;45.596;8.408;2023-02-04T09:37:46;13.90;74.20
44707;DHT22;30433;45.596;8.408;2023-02-04T09:43:49;14.00;73.50
44707;DHT22;30433;45.596;8.408;2023-02-04T09:49:50;15.00;73.30
44707;DHT22;30433;45.596;8.408;2023-02-04T09:55:52;14.80;72.40
44707;DHT22;30433;45.596;8.408;2023-02-04T10:01:56;15.10;71.20
44707;DHT22;30433;45.596;8.408;2023-02-04T10:08:00;14.90;73.30
44707;DHT22;30433;45.596;8.408;2023-02-04T10:14:01;15.00;76.60
44707;DHT22;30433;45.596;8.408;2023-02-04T10:20:05;14.90;74.40
44707;DHT22;30433;45.596;8.408;2023-02-04T10:26:12;15.40;71.80
44707;DHT22;30433;45.596;8.408;2023-02-04T10:32:27;16.40;68.50
44707;DHT22;30433;45.596;8.408;2023-02-04T10:38:30;17.00;69.40
44707;DHT22;30433;45.596;8.408;2023-02-04T10:44:32;17.60;70.30
44707;DHT22;30433;45.596;8.408;2023-02-04T10:50:35;17.50;69.60
44707;DHT22;30433;45.596;8.408;2023-02-04T10:56:38;17.70;71.30
44707;DHT22;30433;45.596;8.408;2023-02-04T11:02:41;18.40;69.10
44707;DHT22;30433;45.596;8.408;2023-02-04T11:08:44;18.70;69.70
44707;DHT22;30433;45.596;8.408;2023-02-04T11:14:54;18.70;69.60
44707;DHT22;30433;45.596;8.408;2023-02-04T11:20:57;19.00;68.00
44707;DHT22;30433;45.596;8.408;2023-02-04T11:27:06;19.20;69.80
44707;DHT22;30433;45.596;8.408;2023-02-04T11:33:23;19.70;67.70
44707;DHT22;30433;45.596;8.408;2023-02-04T11:39:27;19.90;65.60
44707;DHT22;30433;45.596;8.408;2023-02-04T11:45:30;20.20;65.30
44707;DHT22;30433;45.596;8.408;2023-02-04T11:51:36;20.00;65.10
44707;DHT22;30433;45.596;8.408;2023-02-04T11:57:38;20.20;64.50
44707;DHT22;30433;45.596;8.408;2023-02-04T12:03:44;20.40;62.70
44707;DHT22;30433;45.596;8.408;2023-02-04T12:09:48;20.50;62.60
44707;DHT22;30433;45.596;8.408;2023-02-04T12:15:59;20.70;61.90
44707;DHT22;30433;45.596;8.408;2023-02-04T12:22:01;20.30;62.30
44707;DHT22;30433;45.596;8.408;2023-02-04T12:28:05;20.40;66.70
44707;DHT22;30433;45.596;8.408;2023-02-04T12:34:07;20.60;61.80
44707;DHT22;30433;45.596;8.408;2023-02-04T12:40:09;20.40;61.60
44707;DHT22;30433;45.596;8.408;2023-02-04T12:46:12;20.80;61.70
44707;DHT22;30433;45.596;8.408;2023-02-04T12:52:14;20.60;60.70
44707;DHT22;30433;45.596;8.408;2023-02-04T12:58:16;20.80;60.40
44707;DHT22;30433;45.596;8.408;2023-02-04T13:04:19;20.60;59.70
44707;DHT22;30433;45.596;8.408;2023-02-04T13:10:21;20.70;59.60
44707;DHT22;30433;45.596;8.408;2023-02-04T13:16:23;20.50;59.20
44707;DHT22;30433;45.596;8.408;2023-02-04T13:22:27;20.60;59.60
44707;DHT22;30433;45.596;8.408;2023-02-04T13:28:28;20.60;59.60
44707;DHT22;30433;45.596;8.408;2023-02-04T13:34:30;20.40;59.40
44707;DHT22;30433;45.596;8.408;2023-02-04T13:40:33;20.50;59.80
44707;DHT22;30433;45.596;8.408;2023-02-04T13:46:35;20.40;60.30
44707;DHT22;30433;45.596;8.408;2023-02-04T13:52:37;20.20;59.00
44707;DHT22;30433;45.596;8.408;2023-02-04T13:58:40;20.30;59.70
44707;DHT22;30433;45.596;8.408;2023-02-04T14:04:43;20.10;58.60
44707;DHT22;30433;45.596;8.408;2023-02-04T14:10:45;20.30;60.00
44707;DHT22;30433;45.596;8.408;2023-02-04T14:16:48;20.10;59.80
44707;DHT22;30433;45.596;8.408;2023-02-04T14:22:50;20.20;59.90
44707;DHT22;30433;45.596;8.408;2023-02-04T14:28:52;19.90;59.00
44707;DHT22;30433;45.596;8.408;2023-02-04T14:34:55;19.90;58.90
44707;DHT22;30433;45.596;8.408;2023-02-04T14:40:57;20.00;59.30
44707;DHT22;30433;45.596;8.408;2023-02-04T14:46:58;19.90;58.60
44707;DHT22;30433;45.596;8.408;2023-02-04T14:53:02;19.80;58.60
44707;DHT22;30433;45.596;8.408;2023-02-04T14:59:03;19.70;58.60
44707;DHT22;30433;45.596;8.408;2023-02-04T15:05:05;19.60;58.60
44707;DHT22;30433;45.596;8.408;2023-02-04T15:11:10;19.50;59.00
44707;DHT22;30433;45.596;8.408;2023-02-04T15:17:12;19.30;59.10
44707;DHT22;30433;45.596;8.408;2023-02-04T15:23:14;19.10;59.40
44707;DHT22;30433;45.596;8.408;2023-02-04T15:29:18;19.00;58.90
44707;DHT22;30433;45.596;8.408;2023-02-04T15:35:20;18.90;59.20
44707;DHT22;30433;45.596;8.408;2023-02-04T15:41:22;18.80;59.30
44707;DHT22;30433;45.596;8.408;2023-02-04T15:47:25;18.60;59.10
44707;DHT22;30433;45.596;8.408;2023-02-04T15:53:27;18.60;58.90
44707;DHT22;30433;45.596;8.408;2023-02-04T15:59:28;18.30;59.30
44707;DHT22;30433;45.596;8.408;2023-02-04T16:05:32;18.20;59.30
44707;DHT22;30433;45.596;8.408;2023-02-04T16:11:33;17.90;59.80
44707;DHT22;30433;45.596;8.408;2023-02-04T16:17:37;18.10;59.00
44707;DHT22;30433;45.596;8.408;2023-02-04T16:23:40;17.50;59.70
44707;DHT22;30433;45.596;8.408;2023-02-04T16:29:41;17.80;58.70
44707;DHT22;30433;45.596;8.408;2023-02-04T16:35:57;17.50;58.80
44707;DHT22;30433;45.596;8.408;2023-02-04T16:42:00;17.20;59.10
44707;DHT22;30433;45.596;8.408;2023-02-04T16:48:04;17.20;58.10
44707;DHT22;30433;45.596;8.408;2023-02-04T16:54:06;16.80;58.00
44707;DHT22;30433;45.596;8.408;2023-02-04T17:00:11;16.60;57.50
44707;DHT22;30433;45.596;8.408;2023-02-04T17:06:14;16.40;56.90
44707;DHT22;30433;45.596;8.408;2023-02-04T17:12:16;16.20;56.80
44707;DHT22;30433;45.596;8.408;2023-02-04T17:18:19;16.30;55.70
44707;DHT22;30433;45.596;8.408;2023-02-04T17:24:20;16.00;55.60
44707;DHT22;30433;45.596;8.408;2023-02-04T17:30:23;15.60;55.60
44707;DHT22;30433;45.596;8.408;2023-02-04T17:36:27;15.60;55.30
44707;DHT22;30433;45.596;8.408;2023-02-04T17:42:29;15.40;55.00
44707;DHT22;30433;45.596;8.408;2023-02-04T17:48:31;15.50;53.90
44707;DHT22;30433;45.596;8.408;2023-02-04T17:54:34;15.40;53.00
44707;DHT22;30433;45.596;8.408;2023-02-04T18:00:36;15.30;52.20
44707;DHT22;30433;45.596;8.408;2023-02-04T18:06:37;15.30;51.90
44707;DHT22;30433;45.596;8.408;2023-02-04T18:12:41;15.30;51.50
44707;DHT22;30433;45.596;8.408;2023-02-04T18:18:42;14.90;52.00
44707;DHT22;30433;45.596;8.408;2023-02-04T18:24:44;15.00;51.40
44707;DHT22;30433;45.596;8.408;2023-02-04T18:30:52;14.90;51.00
44707;DHT22;30433;45.596;8.408;2023-02-04T18:36:54;14.80;50.90
44707;DHT22;30433;45.596;8.408;2023-02-04T18:43:00;14.80;50.40
44707;DHT22;30433;45.596;8.408;2023-02-04T18:49:06;15.00;49.50
44707;DHT22;30433;45.596;8.408;2023-02-04T18:55:15;14.80;49.50
44707;DHT22;30433;45.596;8.408;2023-02-04T19:01:22;14.60;49.40
44707;DHT22;30433;45.596;8.408;2023-02-04T19:07:28;14.30;50.60
44707;DHT22;30433;45.596;8.408;2023-02-04T19:13:38;14.40;49.10
44707;DHT22;30433;45.596;8.408;2023-02-04T19:19:42;14.10;50.70
44707;DHT22;30433;45.596;8.408;2023-02-04T19:25:46;14.00;50.60
44707;DHT22;30433;45.596;8.408;2023-02-04T19:31:48;13.80;50.50
44707;DHT22;30433;45.596;8.408;2023-02-04T19:37:52;13.60;51.30
44707;DHT22;30433;45.596;8.408;2023-02-04T19:44:09;13.50;51.10
44707;DHT22;30433;45.596;8.408;2023-02-04T19:50:21;13.20;51.10
44707;DHT22;30433;45.596;8.408;2023-02-04T19:56:26;13.10;53.50
44707;DHT22;30433;45.596;8.408;2023-02-04T20:02:31;12.70;55.20
44707;DHT22;30433;45.596;8.408;2023-02-04T20:08:41;12.40;56.10
44707;DHT22;30433;45.596;8.408;2023-02-04T20:14:44;12.40;53.40
44707;DHT22;30433;45.596;8.408;2023-02-04T20:20:48;12.20;56.10
44707;DHT22;30433;45.596;8.408;2023-02-04T20:26:49;11.80;55.20
44707;DHT22;30433;45.596;8.408;2023-02-04T20:32:52;11.50;56.80
44707;DHT22;30433;45.596;8.408;2023-02-04T20:39:04;10.90;58.60
44707;DHT22;30433;45.596;8.408;2023-02-04T20:45:21;10.40;59.00
44707;DHT22;30433;45.596;8.408;2023-02-04T20:51:24;9.90;64.10
44707;DHT22;30433;45.596;8.408;2023-02-04T20:57:29;10.30;58.00
44707;DHT22;30433;45.596;8.408;2023-02-04T21:03:33;10.20;61.30
44707;DHT22;30433;45.596;8.408;2023-02-04T21:09:35;10.20;61.10
44707;DHT22;30433;45.596;8.408;2023-02-04T21:15:39;10.30;58.30
44707;DHT22;30433;45.596;8.408;2023-02-04T21:21:41;11.50;59.70
44707;DHT22;30433;45.596;8.408;2023-02-04T21:27:43;10.40;74.30
44707;DHT22;30433;45.596;8.408;2023-02-04T21:33:46;9.70;84.00
44707;DHT22;30433;45.596;8.408;2023-02-04T21:39:48;9.20;89.00
44707;DHT22;30433;45.596;8.408;2023-02-04T21:45:50;9.00;90.60
44707;DHT22;30433;45.596;8.408;2023-02-04T21:51:53;9.00;91.10
44707;DHT22;30433;45.596;8.408;2023-02-04T21:57:55;9.00;91.60
44707;DHT22;30433;45.596;8.408;2023-02-04T22:03:56;9.00;91.70
44707;DHT22;30433;45.596;8.408;2023-02-04T22:10:00;8.90;91.90
44707;DHT22;30433;45.596;8.408;2023-02-04T22:16:02;8.80;92.30
44707;DHT22;30433;45.596;8.408;2023-02-04T22:22:04;8.60;92.50
44707;DHT22;30433;45.596;8.408;2023-02-04T22:28:07;8.60;92.60
44707;DHT22;30433;45.596;8.408;2023-02-04T22:34:09;7.90;92.60
44707;DHT22;30433;45.596;8.408;2023-02-04T22:40:11;7.80;93.20
44707;DHT22;30433;45.596;8.408;2023-02-04T22:46:14;8.00;93.10
44707;DHT22;30433;45.596;8.408;2023-02-04T22:52:16;8.00;93.00
44707;DHT22;30433;45.596;8.408;2023-02-04T22:58:17;7.70;93.40
44707;DHT22;30433;45.596;8.408;2023-02-04T23:04:21;8.10;92.60
44707;DHT22;30433;45.596;8.408;2023-02-04T23:10:23;7.60;92.30
44707;DHT22;30433;45.596;8.408;2023-02-04T23:16:24;7.80;92.40
44707;DHT22;30433;45.596;8.408;2023-02-04T23:22:28;7.00;92.80
44707;DHT22;30433;45.596;8.408;2023-02-04T23:28:29;7.00;93.40
44707;DHT22;30433;45.596;8.408;2023-02-04T23:34:31;6.90;93.20
44707;DHT22;30433;45.596;8.408;2023-02-04T23:40:34;6.60;92.90
44707;DHT22;30433;45.596;8.408;2023-02-04T23:46:36;6.60;93.20
44707;DHT22;30433;45.596;8.408;2023-02-04T23:52:38;5.50;93.60
44707;DHT22;30433;45.596;8.408;2023-02-04T23:58:41;5.30;93.90
